Time;durP1;ratioP1;P1;durP2;ratioP2;P2;SDS_P1;SDS_P2;PMS_P1;PMS_P2;Temp;Humidity;BMP_temperature;BMP_pressure;BME280_temperature;BME280_humidity;BME280_pressure;Samples;Min_cycle;Max_cycle;Signal;HPM_P1;HPM_P2
2023/09/12 00:00:49;;;;;;;14.43;9.50;;;;;;;22.05;84.26;100522.50;7377472;19;20460;-75
2023/09/12 00:03:19;;;;;;;11.80;8.93;;;;;;;22.08;84.20;100511.22;7374699;19;20440;-75
2023/09/12 00:05:54;;;;;;;11.93;9.13;;;;;;;22.10;84.02;100510.94;7376661;19;20987;-75
2023/09/12 00:08:22;;;;;;;15.05;10.02;;;;;;;22.12;84.04;100501.53;7377135;19;20457;-75
2023/09/12 00:11:18;;;;;;;15.82;9.00;;;;;;;22.12;83.95;100497.97;7375672;19;20384;-75
2023/09/12 00:13:45;;;;;;;16.52;9.52;;;;;;;22.12;84.16;100489.88;7374177;19;20365;-75
2023/09/12 00:16:12;;;;;;;15.45;9.25;;;;;;;22.07;84.46;100485.25;7376613;19;20368;-75
2023/09/12 00:18:39;;;;;;;15.10;8.95;;;;;;;22.04;84.49;100476.84;7375847;19;20372;-75
2023/09/12 00:21:06;;;;;;;14.25;8.80;;;;;;;22.01;84.49;100488.16;7376757;19;20375;-75
2023/09/12 00:23:33;;;;;;;15.38;9.95;;;;;;;21.94;85.05;100494.59;7374467;19;20352;-75
2023/09/12 00:26:00;;;;;;;15.07;9.60;;;;;;;21.87;85.61;100510.19;7376432;19;20368;-75
2023/09/12 00:28:27;;;;;;;12.43;8.90;;;;;;;21.78;86.16;100527.91;7378470;19;20374;-74
2023/09/12 00:30:54;;;;;;;14.70;10.15;;;;;;;21.75;86.72;100517.63;7375941;19;20363;-75
2023/09/12 00:33:22;;;;;;;12.55;9.30;;;;;;;21.75;86.97;100501.41;7374848;19;20392;-76
2023/09/12 00:35:50;;;;;;;13.53;9.83;;;;;;;21.78;86.25;100487.41;7376203;19;20688;-75
2023/09/12 00:38:17;;;;;;;12.77;10.45;;;;;;;21.79;86.79;100481.75;7375429;19;20357;-76
2023/09/12 00:40:44;;;;;;;14.52;10.07;;;;;;;21.83;86.23;100492.06;7377767;19;20365;-75
2023/09/12 00:43:11;;;;;;;13.50;10.43;;;;;;;21.83;86.38;100470.44;7375002;19;20368;-75
2023/09/12 00:45:38;;;;;;;13.88;9.90;;;;;;;21.84;86.47;100464.78;7377848;19;20352;-75
2023/09/12 00:48:06;;;;;;;15.25;10.75;;;;;;;21.83;86.67;100465.84;7376089;19;20372;-75
2023/09/12 00:50:34;;;;;;;14.07;10.23;;;;;;;21.77;87.40;100459.59;7375659;19;20374;-75
2023/09/12 00:53:03;;;;;;;15.32;9.93;;;;;;;21.76;87.02;100449.88;7375766;19;20677;-76
2023/09/12 00:55:32;;;;;;;14.43;9.95;;;;;;;21.76;87.04;100454.44;7376851;19;20868;-76
2023/09/12 00:58:01;;;;;;;13.93;10.43;;;;;;;21.71;87.40;100454.41;7373451;19;20522;-76
2023/09/12 01:00:28;;;;;;;16.98;10.65;;;;;;;21.68;87.03;100453.03;7375850;19;20349;-76
2023/09/12 01:02:58;;;;;;;16.48;11.00;;;;;;;21.65;86.65;100453.50;7374193;19;20360;-76
2023/09/12 01:05:25;;;;;;;12.30;10.90;;;;;;;21.60;87.16;100450.78;7374100;19;20372;-76
2023/09/12 01:07:52;;;;;;;15.07;10.77;;;;;;;21.59;87.13;100449.13;7374232;19;21077;-76
2023/09/12 01:10:19;;;;;;;14.43;10.82;;;;;;;21.53;87.50;100461.78;7376156;19;20375;-75
2023/09/12 01:12:46;;;;;;;14.38;10.05;;;;;;;21.48;87.76;100448.22;7370724;19;20834;-76
2023/09/12 01:15:14;;;;;;;15.18;10.80;;;;;;;21.43;87.76;100442.78;7374595;19;20956;-76
2023/09/12 01:17:43;;;;;;;14.35;10.98;;;;;;;21.41;87.96;100441.38;7363282;19;20352;-76
2023/09/12 01:20:16;;;;;;;17.83;11.32;;;;;;;21.37;88.00;100452.66;7373119;19;21272;-76
2023/09/12 01:23:00;;;;;;;13.50;11.18;;;;;;;21.32;88.83;100457.19;7373390;19;20375;-76
2023/09/12 01:25:54;;;;;;;12.98;11.30;;;;;;;21.29;88.66;100449.59;7375854;19;20368;-76
2023/09/12 01:28:25;;;;;;;14.48;11.05;;;;;;;21.25;88.06;100434.97;7371613;19;20952;-76
2023/09/12 01:30:53;;;;;;;17.85;11.70;;;;;;;21.24;88.38;100441.44;7372626;19;20425;-76
2023/09/12 01:33:20;;;;;;;14.33;11.03;;;;;;;21.23;88.49;100445.19;7376932;19;20363;-76
2023/09/12 01:35:47;;;;;;;13.10;11.67;;;;;;;21.18;88.48;100449.47;7378824;19;20435;-76
2023/09/12 01:38:14;;;;;;;13.18;10.73;;;;;;;21.15;88.47;100441.88;7379748;19;20889;-76
2023/09/12 01:40:50;;;;;;;14.32;11.18;;;;;;;21.12;88.83;100445.09;7377894;19;20367;-76
2023/09/12 01:43:21;;;;;;;17.83;12.02;;;;;;;21.09;89.08;100444.78;7382801;19;20380;-75
2023/09/12 01:45:52;;;;;;;13.35;11.45;;;;;;;21.07;88.87;100439.63;7378124;19;20420;-77
2023/09/12 01:48:23;;;;;;;14.25;11.40;;;;;;;21.07;88.76;100446.91;7380916;19;20700;-76
2023/09/12 01:50:50;;;;;;;12.35;11.05;;;;;;;21.03;89.23;100451.16;7381923;19;20356;-76
2023/09/12 01:53:18;;;;;;;12.63;10.60;;;;;;;20.99;89.01;100456.22;7381048;19;20372;-76
2023/09/12 01:55:47;;;;;;;15.02;11.32;;;;;;;20.94;89.10;100458.88;7375871;19;20340;-76
2023/09/12 01:58:14;;;;;;;15.60;12.10;;;;;;;20.92;89.58;100458.31;7380398;19;20376;-76
2023/09/12 02:00:41;;;;;;;14.67;11.27;;;;;;;20.87;90.58;100469.84;7381026;19;20920;-76
2023/09/12 02:03:08;;;;;;;17.70;12.20;;;;;;;20.79;91.79;100466.75;7382071;19;20364;-76
2023/09/12 02:05:37;;;;;;;17.67;12.80;;;;;;;20.70;92.58;100475.28;7379384;19;21056;-76
2023/09/12 02:08:05;;;;;;;16.60;12.40;;;;;;;20.65;92.65;100474.38;7380216;19;20365;-76
2023/09/12 02:10:32;;;;;;;15.40;12.20;;;;;;;20.59;92.98;100470.78;7379885;19;20352;-76
2023/09/12 02:13:02;;;;;;;15.30;12.63;;;;;;;20.55;93.31;100473.13;7374417;19;20747;-76
2023/09/12 02:15:30;;;;;;;16.23;12.77;;;;;;;20.54;93.85;100479.56;7375486;19;20356;-76
2023/09/12 02:17:57;;;;;;;16.83;12.50;;;;;;;20.56;93.07;100479.34;7378726;19;20357;-76
2023/09/12 02:20:25;;;;;;;17.40;12.95;;;;;;;20.57;93.05;100486.34;7378217;19;20870;-76
2023/09/12 02:22:52;;;;;;;14.77;12.55;;;;;;;20.58;92.80;100496.09;7379317;19;20428;-76
2023/09/12 02:25:18;;;;;;;14.83;12.23;;;;;;;20.56;93.03;100495.50;7380333;19;20367;-76
2023/09/12 02:27:47;;;;;;;14.32;11.68;;;;;;;20.54;93.01;100498.44;7380313;19;20349;-76
2023/09/12 02:30:14;;;;;;;19.48;12.50;;;;;;;20.54;93.27;100505.72;7378283;19;20373;-76
2023/09/12 02:32:42;;;;;;;15.30;12.25;;;;;;;20.52;93.13;100500.56;7373239;19;20432;-76
2023/09/12 02:35:09;;;;;;;14.88;11.88;;;;;;;20.53;93.36;100496.00;7376919;19;20368;-76
2023/09/12 02:37:38;;;;;;;13.88;11.70;;;;;;;20.51;93.27;100508.91;7378117;19;20361;-76
2023/09/12 02:40:06;;;;;;;15.95;12.57;;;;;;;20.51;93.26;100503.53;7375989;19;21090;-76
2023/09/12 02:42:33;;;;;;;16.33;11.87;;;;;;;20.51;93.32;100503.53;7373102;19;20478;-76
2023/09/12 02:45:00;;;;;;;16.92;12.80;;;;;;;20.51;93.32;100509.72;7376655;19;20364;-76
2023/09/12 02:47:27;;;;;;;17.83;13.18;;;;;;;20.48;93.71;100520.16;7381447;19;20357;-76
2023/09/12 02:49:54;;;;;;;15.10;13.07;;;;;;;20.43;94.74;100544.34;7381653;19;20372;-76
2023/09/12 02:52:20;;;;;;;14.87;12.13;;;;;;;20.39;94.93;100553.97;7372356;19;20385;-76
2023/09/12 02:54:47;;;;;;;16.40;12.57;;;;;;;20.29;96.13;100550.03;7382235;19;20371;-76
2023/09/12 02:57:14;;;;;;;14.68;12.98;;;;;;;20.27;97.27;100562.91;7381032;19;20352;-76
2023/09/12 02:59:41;;;;;;;19.35;14.13;;;;;;;20.29;98.09;100552.72;7376101;19;20457;-76
2023/09/12 03:02:08;;;;;;;20.90;14.73;;;;;;;20.35;97.67;100549.06;7378703;19;20433;-76
2023/09/12 03:04:36;;;;;;;18.45;14.15;;;;;;;20.43;97.86;100561.31;7382281;19;20371;-76
2023/09/12 03:07:03;;;;;;;17.05;13.38;;;;;;;20.46;97.69;100552.72;7377922;19;20901;-76
2023/09/12 03:09:30;;;;;;;22.30;15.27;;;;;;;20.53;97.75;100528.34;7378026;19;20364;-75
2023/09/12 03:11:57;;;;;;;16.38;14.18;;;;;;;20.58;96.96;100523.06;7372401;19;20368;-75
2023/09/12 03:14:24;;;;;;;18.00;13.95;;;;;;;20.62;96.68;100516.13;7377207;19;20398;-75
2023/09/12 03:16:50;;;;;;;16.60;13.38;;;;;;;20.68;96.44;100509.75;7386126;19;20415;-76
2023/09/12 03:19:17;;;;;;;15.88;12.75;;;;;;;20.72;95.73;100510.03;7386821;19;20411;-76
2023/09/12 03:21:44;;;;;;;16.35;14.07;;;;;;;20.74;95.58;100507.91;7387407;19;20377;-76
2023/09/12 03:24:11;;;;;;;16.38;13.30;;;;;;;20.73;94.96;100496.31;7385887;19;20840;-76
2023/09/12 03:26:38;;;;;;;15.73;13.93;;;;;;;20.74;95.08;100497.97;7388934;19;20370;-76
2023/09/12 03:29:05;;;;;;;20.38;13.82;;;;;;;20.73;94.99;100507.09;7385275;19;20856;-76
2023/09/12 03:31:32;;;;;;;17.52;13.27;;;;;;;20.71;94.64;100509.22;7387750;19;20352;-76
2023/09/12 03:33:59;;;;;;;16.25;13.50;;;;;;;20.70;95.12;100509.50;7383309;19;20391;-76
2023/09/12 03:36:26;;;;;;;17.05;14.05;;;;;;;20.70;94.42;100510.31;7384214;19;20695;-76
2023/09/12 03:38:53;;;;;;;16.73;13.93;;;;;;;20.70;94.34;100510.31;7384847;19;20385;-76
2023/09/12 03:41:24;;;;;;;18.25;14.57;;;;;;;20.68;94.50;100517.81;7388310;19;20352;-76
2023/09/12 03:43:53;;;;;;;18.90;14.30;;;;;;;20.69;94.74;100522.13;7384401;19;20373;-76
2023/09/12 03:46:20;;;;;;;17.17;14.63;;;;;;;20.71;94.70;100536.19;7385664;19;20368;-76
2023/09/12 03:48:47;;;;;;;18.10;14.90;;;;;;;20.69;94.57;100542.91;7382791;19;20732;-76
2023/09/12 03:51:14;;;;;;;17.58;13.80;;;;;;;20.67;94.94;100559.31;7385997;19;20525;-76
2023/09/12 03:53:41;;;;;;;16.05;14.00;;;;;;;20.63;95.29;100587.00;7384674;19;20907;-76
2023/09/12 03:56:12;;;;;;;19.77;14.40;;;;;;;20.57;95.90;100594.13;7384248;19;20376;-76
2023/09/12 03:58:39;;;;;;;20.55;13.82;;;;;;;20.53;96.75;100609.19;7388495;19;20398;-76
2023/09/12 04:01:07;;;;;;;24.63;14.77;;;;;;;20.52;97.12;100602.16;7385513;19;20352;-76
2023/09/12 04:03:34;;;;;;;19.73;14.63;;;;;;;20.51;98.50;100617.50;7385461;19;20325;-75
2023/09/12 04:06:01;;;;;;;18.50;15.38;;;;;;;20.56;97.98;100614.09;7384701;19;20910;-76
2023/09/12 04:08:28;;;;;;;23.15;15.77;;;;;;;20.58;98.31;100603.91;7384034;19;20427;-76
2023/09/12 04:10:55;;;;;;;22.65;15.80;;;;;;;20.61;98.24;100622.28;7381502;19;20710;-76
2023/09/12 04:13:22;;;;;;;25.08;16.45;;;;;;;20.65;97.87;100620.72;7382765;19;20341;-75
2023/09/12 04:15:48;;;;;;;20.77;17.33;;;;;;;20.70;98.42;100599.25;7384825;19;20396;-75
2023/09/12 04:18:15;;;;;;;24.73;17.02;;;;;;;20.74;98.13;100586.94;7386373;19;20452;-76
2023/09/12 04:20:42;;;;;;;21.15;16.95;;;;;;;20.80;97.47;100578.91;7382107;19;20402;-76
2023/09/12 04:23:09;;;;;;;20.73;16.65;;;;;;;20.84;97.44;100561.19;7381565;19;20348;-76
2023/09/12 04:25:36;;;;;;;19.27;15.90;;;;;;;20.87;97.10;100544.50;7383920;19;20425;-76
2023/09/12 04:28:03;;;;;;;19.65;16.38;;;;;;;20.89;96.47;100515.41;7385504;19;20372;-76
2023/09/12 04:30:30;;;;;;;18.10;15.43;;;;;;;20.92;96.31;100498.75;7382198;19;20328;-76
2023/09/12 04:32:58;;;;;;;18.95;14.77;;;;;;;20.93;96.17;100513.84;7382854;19;20781;-76
2023/09/12 04:35:25;;;;;;;16.60;14.20;;;;;;;20.93;95.61;100513.84;7385052;19;20357;-76
2023/09/12 04:37:52;;;;;;;17.33;15.27;;;;;;;20.93;95.91;100521.94;7384894;19;20379;-76
2023/09/12 04:40:18;;;;;;;19.70;14.93;;;;;;;20.94;95.60;100532.50;7381393;19;20431;-76
2023/09/12 04:42:45;;;;;;;16.42;14.68;;;;;;;20.94;95.51;100534.38;7385921;19;20364;-76
2023/09/12 04:45:12;;;;;;;16.30;13.80;;;;;;;20.93;95.07;100520.09;7386543;19;20679;-76
2023/09/12 04:47:39;;;;;;;19.95;13.77;;;;;;;20.95;94.83;100519.81;7380986;19;20896;-76
2023/09/12 04:50:07;;;;;;;16.15;13.48;;;;;;;20.93;94.29;100501.22;7384352;19;20372;-76
2023/09/12 04:52:34;;;;;;;14.57;12.47;;;;;;;20.92;94.47;100496.06;7387176;19;20447;-76
2023/09/12 04:55:01;;;;;;;14.83;12.40;;;;;;;20.91;94.43;100500.66;7390339;19;20762;-80
2023/09/12 04:57:30;;;;;;;16.30;12.57;;;;;;;20.91;94.07;100506.03;7389832;19;20357;-80
2023/09/12 04:59:58;;;;;;;14.02;11.05;;;;;;;20.92;94.15;100504.97;7386280;19;20885;-80
2023/09/12 05:02:25;;;;;;;13.27;11.65;;;;;;;20.94;94.05;100499.31;7382621;19;20734;-79
2023/09/12 05:04:52;;;;;;;13.52;11.45;;;;;;;20.97;93.86;100502.34;7385696;19;20360;-79
2023/09/12 05:07:21;;;;;;;13.07;11.30;;;;;;;21.02;93.15;100493.50;7384192;19;20368;-79
2023/09/12 05:09:48;;;;;;;14.50;10.80;;;;;;;21.07;92.55;100484.66;7392911;19;20976;-79
2023/09/12 05:12:14;;;;;;;14.83;11.43;;;;;;;21.10;92.47;100474.19;7398642;19;20504;-79
2023/09/12 05:14:41;;;;;;;12.77;10.27;;;;;;;21.14;92.24;100478.00;7391675;19;20447;-79
2023/09/12 05:17:08;;;;;;;12.52;9.55;;;;;;;21.16;91.75;100486.66;7392086;19;20383;-79
2023/09/12 05:19:35;;;;;;;11.88;10.25;;;;;;;21.21;91.38;100501.28;7393477;19;20344;-79
2023/09/12 05:22:02;;;;;;;12.90;10.10;;;;;;;21.25;90.86;100508.66;7391516;19;20336;-79
2023/09/12 05:24:30;;;;;;;11.07;9.40;;;;;;;21.29;90.84;100523.25;7388992;19;20348;-79
2023/09/12 05:26:56;;;;;;;11.40;9.80;;;;;;;21.31;90.43;100523.00;7394053;19;20382;-79
2023/09/12 05:29:23;;;;;;;13.82;9.82;;;;;;;21.28;90.10;100545.91;7392453;19;20377;-79
2023/09/12 05:31:50;;;;;;;12.45;9.68;;;;;;;21.29;90.16;100562.91;7394773;19;20905;-79
2023/09/12 05:34:18;;;;;;;13.63;9.85;;;;;;;21.31;90.19;100566.16;7390154;19;20381;-79
2023/09/12 05:36:45;;;;;;;10.65;9.23;;;;;;;21.23;89.81;100574.69;7386472;19;20356;-79
2023/09/12 05:39:13;;;;;;;11.32;9.57;;;;;;;21.16;89.96;100574.88;7393088;19;20368;-79
2023/09/12 05:41:40;;;;;;;12.00;8.93;;;;;;;21.12;90.46;100585.34;7389121;19;20734;-79
2023/09/12 05:44:07;;;;;;;12.75;10.13;;;;;;;21.10;90.57;100592.88;7394583;19;20354;-79
2023/09/12 05:46:34;;;;;;;12.75;10.52;;;;;;;21.07;90.65;100587.97;7391831;19;20344;-80
2023/09/12 05:49:01;;;;;;;10.45;8.60;;;;;;;21.01;90.41;100598.94;7394059;19;20953;-80
2023/09/12 05:51:28;;;;;;;12.47;9.60;;;;;;;20.98;90.65;100600.25;7395279;19;21038;-79
2023/09/12 05:53:55;;;;;;;10.70;8.48;;;;;;;20.98;90.66;100598.34;7391848;19;20357;-81
2023/09/12 05:56:22;;;;;;;14.70;9.75;;;;;;;20.96;90.69;100624.75;7394100;19;20356;-80
2023/09/12 05:58:50;;;;;;;13.10;10.30;;;;;;;20.96;90.94;100626.63;7395412;19;20963;-81
2023/09/12 06:01:17;;;;;;;16.80;10.52;;;;;;;20.93;91.18;100619.03;7392665;19;20368;-80
2023/09/12 06:03:44;;;;;;;14.32;10.80;;;;;;;20.93;91.38;100617.16;7395030;19;20360;-81
2023/09/12 06:06:12;;;;;;;13.65;10.32;;;;;;;20.94;91.75;100617.97;7387155;19;20706;-79
2023/09/12 06:08:39;;;;;;;13.20;9.27;;;;;;;20.94;90.80;100601.78;7389584;19;20332;-77
2023/09/12 06:11:06;;;;;;;14.43;9.97;;;;;;;20.97;90.81;100614.78;7386886;19;20864;-77
2023/09/12 06:13:35;;;;;;;21.03;18.73;;;;;;;21.01;90.91;100632.09;7390643;19;20748;-77
2023/09/12 06:16:02;;;;;;;38.67;31.85;;;;;;;21.05;90.62;100649.44;7392005;19;20443;-77
2023/09/12 06:18:31;;;;;;;20.95;17.17;;;;;;;21.02;90.69;100657.19;7392398;19;20356;-79
2023/09/12 06:20:59;;;;;;;13.75;8.90;;;;;;;21.02;91.18;100682.28;7394180;19;20896;-78
2023/09/12 06:23:25;;;;;;;18.23;6.97;;;;;;;20.96;91.13;100684.06;7392771;19;20404;-81
2023/09/12 06:25:52;;;;;;;9.38;6.20;;;;;;;20.84;91.60;100669.84;7385883;19;20385;-79
2023/09/12 06:28:30;;;;;;;10.18;6.90;;;;;;;20.73;92.45;100641.91;7390337;19;20345;-79
2023/09/12 06:30:58;;;;;;;13.93;9.27;;;;;;;20.63;94.51;100630.94;7388294;19;20903;-77
2023/09/12 06:33:26;;;;;;;14.55;10.20;;;;;;;20.52;95.33;100642.56;7390305;19;20347;-77
2023/09/12 06:35:53;;;;;;;16.60;10.40;;;;;;;20.42;95.69;100618.13;7391411;19;20369;-77
2023/09/12 06:38:23;;;;;;;15.77;10.90;;;;;;;20.34;96.09;100593.22;7392887;19;20819;-77
2023/09/12 06:40:50;;;;;;;16.50;11.50;;;;;;;20.29;96.55;100593.13;7391637;19;20368;-77
2023/09/12 06:43:17;;;;;;;15.18;12.18;;;;;;;20.27;97.50;100583.66;7387388;19;20884;-77
2023/09/12 06:45:44;;;;;;;17.85;14.45;;;;;;;20.24;98.34;100566.09;7393512;19;20412;-77
2023/09/12 06:48:11;;;;;;;17.63;14.27;;;;;;;20.17;99.00;100533.94;7388189;19;20333;-76
2023/09/12 06:50:38;;;;;;;17.58;15.30;;;;;;;20.16;99.74;100512.63;7389438;19;20394;-77
2023/09/12 06:53:09;;;;;;;19.35;15.10;;;;;;;20.16;99.84;100523.41;7393317;19;20357;-76
2023/09/12 06:55:37;;;;;;;20.10;15.80;;;;;;;20.18;100.00;100548.22;7388437;19;20928;-76
2023/09/12 06:58:04;;;;;;;20.83;15.17;;;;;;;20.15;100.00;100563.00;7392641;19;20994;-76
2023/09/12 07:00:31;;;;;;;16.83;13.93;;;;;;;20.13;100.00;100559.72;7383565;19;20435;-77
2023/09/12 07:02:58;;;;;;;15.90;13.55;;;;;;;20.11;100.00;100539.47;7391044;19;20386;-77
2023/09/12 07:05:25;;;;;;;14.85;11.88;;;;;;;20.10;100.00;100543.22;7392272;19;20365;-77
2023/09/12 07:07:52;;;;;;;12.90;11.15;;;;;;;20.10;100.00;100521.66;7392754;19;20347;-77
2023/09/12 07:10:19;;;;;;;13.30;10.63;;;;;;;20.11;100.00;100513.34;7384676;19;20360;-77
2023/09/12 07:12:50;;;;;;;13.35;9.68;;;;;;;20.14;100.00;100522.81;7391152;19;20389;-76
2023/09/12 07:15:17;;;;;;;12.02;9.93;;;;;;;20.15;100.00;100521.78;7389993;19;20339;-77
2023/09/12 07:17:44;;;;;;;14.70;9.90;;;;;;;20.19;100.00;100522.94;7386926;19;20367;-77
2023/09/12 07:20:11;;;;;;;11.60;9.23;;;;;;;20.26;100.00;100503.91;7383151;19;20387;-76
2023/09/12 07:22:40;;;;;;;14.10;8.73;;;;;;;20.33;99.80;100496.47;7391671;19;20375;-77
2023/09/12 07:25:09;;;;;;;13.02;9.02;;;;;;;20.42;99.63;100478.03;7388838;19;20655;-77
2023/09/12 07:27:36;;;;;;;13.17;9.30;;;;;;;20.45;99.49;100475.66;7387956;19;20815;-77
2023/09/12 07:30:07;;;;;;;11.23;9.73;;;;;;;20.51;99.69;100469.31;7388935;19;20377;-77
2023/09/12 07:32:34;;;;;;;11.75;9.88;;;;;;;20.57;99.69;100456.69;7389001;19;20900;-77
2023/09/12 07:35:01;;;;;;;11.00;9.90;;;;;;;20.62;99.62;100443.34;7387924;19;20364;-77
2023/09/12 07:37:28;;;;;;;13.07;11.00;;;;;;;20.68;99.59;100450.44;7386068;19;20364;-77
2023/09/12 07:39:55;;;;;;;12.47;11.17;;;;;;;20.77;100.00;100462.41;7387095;19;20759;-77
2023/09/12 07:42:23;;;;;;;14.50;11.77;;;;;;;20.88;100.00;100465.25;7386674;19;20368;-77
2023/09/12 07:44:51;;;;;;;15.23;12.88;;;;;;;20.97;100.00;100479.94;7389691;19;21011;-77
2023/09/12 07:47:19;;;;;;;17.23;13.57;;;;;;;21.04;99.42;100490.53;7388074;19;20872;-77
2023/09/12 07:49:52;;;;;;;16.13;13.75;;;;;;;21.10;98.65;100511.13;7388908;19;20360;-77
2023/09/12 07:52:19;;;;;;;16.63;14.15;;;;;;;21.15;98.58;100513.91;7388215;19;20385;-77
2023/09/12 07:54:46;;;;;;;17.63;14.40;;;;;;;21.28;98.25;100520.81;7383865;19;20670;-77
2023/09/12 07:57:12;;;;;;;16.10;14.35;;;;;;;21.41;98.14;100527.72;7386001;19;20364;-77
2023/09/12 07:59:39;;;;;;;16.83;14.57;;;;;;;21.58;97.85;100537.41;7391664;19;20348;-78
2023/09/12 08:02:06;;;;;;;17.25;13.98;;;;;;;21.77;98.09;100532.47;7383882;19;20337;-77
2023/09/12 08:04:34;;;;;;;18.73;14.18;;;;;;;21.98;97.77;100521.91;7383018;19;20368;-77
2023/09/12 08:07:01;;;;;;;18.45;14.13;;;;;;;22.17;96.93;100523.16;7390861;19;20436;-77
2023/09/12 08:10:05;;;;;;;14.50;13.00;;;;;;;22.39;96.36;100519.59;7386575;19;20381;-77
2023/09/12 08:12:32;;;;;;;19.60;13.25;;;;;;;22.58;95.32;100538.94;7388323;19;20378;-77
2023/09/12 08:14:59;;;;;;;15.05;12.88;;;;;;;22.65;93.97;100553.03;7385898;19;20697;-77
2023/09/12 08:17:27;;;;;;;14.00;12.48;;;;;;;22.68;92.68;100560.66;7384274;19;20429;-77
2023/09/12 08:19:54;;;;;;;16.17;12.80;;;;;;;22.68;91.51;100590.41;7382155;19;20867;-77
2023/09/12 08:22:21;;;;;;;14.88;12.43;;;;;;;22.66;91.28;100597.94;7386641;19;20439;-77
2023/09/12 08:24:48;;;;;;;14.18;12.25;;;;;;;22.66;90.48;100608.75;7388111;19;20368;-77
2023/09/12 08:27:15;;;;;;;15.65;13.07;;;;;;;22.68;89.97;100628.25;7385381;19;20707;-77
2023/09/12 08:29:48;;;;;;;14.85;12.32;;;;;;;22.67;89.41;100629.31;7383983;19;20376;-77
2023/09/12 08:32:17;;;;;;;16.17;12.02;;;;;;;22.70;90.18;100636.13;7389135;19;20384;-77
2023/09/12 08:34:45;;;;;;;16.60;12.57;;;;;;;22.69;89.90;100650.69;7383454;19;20352;-77
2023/09/12 08:37:12;;;;;;;14.60;12.23;;;;;;;22.72;90.16;100661.81;7389954;19;20869;-77
2023/09/12 08:39:44;;;;;;;14.15;11.82;;;;;;;22.79;90.53;100657.00;7383021;19;20356;-77
2023/09/12 08:42:16;;;;;;;12.68;10.82;;;;;;;22.69;89.57;100681.25;7388111;19;20442;-77
2023/09/12 08:44:43;;;;;;;15.53;10.70;;;;;;;22.64;89.28;100681.22;7395540;19;20432;-78
2023/09/12 08:47:11;;;;;;;15.27;10.05;;;;;;;22.54;89.21;100670.28;7393495;19;20403;-77
2023/09/12 08:49:38;;;;;;;13.65;10.48;;;;;;;22.53;90.20;100669.47;7391792;19;20364;-77
2023/09/12 08:52:05;;;;;;;17.17;11.05;;;;;;;22.57;90.61;100681.41;7398031;19;20348;-77
2023/09/12 08:54:33;;;;;;;13.83;10.67;;;;;;;22.59;89.60;100678.47;7392799;19;20351;-78
2023/09/12 08:57:05;;;;;;;11.88;10.13;;;;;;;22.66;90.54;100684.47;7390208;19;20356;-78
2023/09/12 08:59:33;;;;;;;14.55;10.30;;;;;;;22.69;90.88;100681.25;7394065;19;20385;-78
2023/09/12 09:02:02;;;;;;;13.33;10.50;;;;;;;22.76;90.49;100672.91;7392191;19;21273;-78
2023/09/12 09:04:30;;;;;;;12.00;10.27;;;;;;;22.84;89.40;100679.75;7393076;19;20371;-78
2023/09/12 09:06:59;;;;;;;13.10;10.07;;;;;;;22.89;89.42;100682.53;7393152;19;20344;-78
2023/09/12 09:09:28;;;;;;;12.95;10.30;;;;;;;22.97;89.21;100682.03;7391059;19;20357;-78
2023/09/12 09:11:55;;;;;;;12.25;10.32;;;;;;;23.09;89.27;100688.13;7392407;19;20360;-78
2023/09/12 09:14:22;;;;;;;12.50;10.32;;;;;;;23.20;87.21;100689.00;7391778;19;20370;-78
2023/09/12 09:16:50;;;;;;;12.13;9.98;;;;;;;23.36;87.63;100695.38;7390834;19;20892;-78
2023/09/12 09:19:19;;;;;;;12.25;9.45;;;;;;;23.45;85.87;100696.50;7393276;19;20364;-78
2023/09/12 09:21:47;;;;;;;13.52;10.30;;;;;;;23.51;85.70;100700.06;7394181;19;20407;-78
2023/09/12 09:24:17;;;;;;;13.60;9.63;;;;;;;23.45;84.85;100699.22;7391526;19;20368;-78
2023/09/12 09:26:50;;;;;;;14.35;9.82;;;;;;;23.32;85.19;100724.03;7392514;19;20880;-79
2023/09/12 09:29:19;;;;;;;12.35;9.20;;;;;;;23.10;85.83;100738.47;7394560;19;20578;-78
2023/09/12 09:31:51;;;;;;;8.25;7.28;;;;;;;22.77;85.55;100740.28;7391799;19;20348;-78
2023/09/12 09:34:19;;;;;;;7.40;5.93;;;;;;;22.58;85.83;100731.69;7391680;19;20368;-78
2023/09/12 09:36:54;;;;;;;6.75;5.60;;;;;;;22.43;86.36;100719.91;7393071;19;20887;-79
2023/09/12 09:39:27;;;;;;;7.07;5.00;;;;;;;22.28;85.84;100713.25;7394694;19;20378;-78
2023/09/12 09:41:56;;;;;;;5.50;4.50;;;;;;;22.17;86.84;100725.00;7390451;19;20405;-77
2023/09/12 09:44:26;;;;;;;5.32;3.80;;;;;;;21.96;85.98;100708.53;7392791;19;20340;-78
2023/09/12 09:47:02;;;;;;;4.97;3.40;;;;;;;21.75;84.87;100707.44;7392459;19;20365;-78
2023/09/12 09:49:34;;;;;;;4.72;3.10;;;;;;;21.64;86.10;100696.75;7393260;19;20368;-78
2023/09/12 09:52:04;;;;;;;4.30;3.67;;;;;;;21.55;86.98;100718.75;7393217;19;21221;-78
2023/09/12 09:54:31;;;;;;;6.32;3.90;;;;;;;21.50;86.87;100699.78;7388777;19;20382;-78
2023/09/12 09:56:58;;;;;;;4.77;3.47;;;;;;;21.49;87.75;100698.16;7389338;19;20372;-78
2023/09/12 09:59:27;;;;;;;4.60;3.73;;;;;;;21.43;86.60;100703.72;7393952;19;20372;-78
2023/09/12 10:01:58;;;;;;;6.70;3.65;;;;;;;21.36;86.93;100707.38;7390407;19;20440;-78
2023/09/12 10:04:27;;;;;;;4.80;3.67;;;;;;;21.26;86.66;100698.31;7393740;19;20357;-78
2023/09/12 10:06:56;;;;;;;4.15;3.38;;;;;;;21.16;87.00;100718.66;7389442;19;20383;-78
2023/09/12 10:09:26;;;;;;;4.63;3.60;;;;;;;21.12;87.52;100697.81;7390993;19;20353;-79
2023/09/12 10:11:55;;;;;;;4.47;3.72;;;;;;;21.18;88.25;100696.81;7386314;19;20372;-78
2023/09/12 10:14:26;;;;;;;5.63;3.80;;;;;;;21.15;88.03;100691.94;7389188;19;20372;-79
2023/09/12 10:17:01;;;;;;;5.35;4.18;;;;;;;21.26;88.28;100677.53;7391990;19;20377;-79
2023/09/12 10:19:41;;;;;;;5.65;3.53;;;;;;;21.36;87.81;100663.41;7394779;19;20364;-79
2023/09/12 10:22:22;;;;;;;6.75;3.80;;;;;;;21.51;88.34;100665.53;7389440;19;20360;-78
2023/09/12 10:24:50;;;;;;;4.57;3.42;;;;;;;21.54;87.08;100673.94;7390554;19;20353;-79
2023/09/12 10:27:19;;;;;;;6.03;3.50;;;;;;;21.55;87.06;100680.16;7394042;19;20689;-79
2023/09/12 10:29:47;;;;;;;6.80;3.70;;;;;;;21.60;86.83;100666.72;7391688;19;20901;-79
2023/09/12 10:32:16;;;;;;;4.57;3.05;;;;;;;21.58;86.77;100669.66;7387836;19;20368;-78
2023/09/12 10:34:47;;;;;;;3.80;2.90;;;;;;;21.51;86.70;100685.22;7389039;19;20378;-78
2023/09/12 10:37:16;;;;;;;3.93;2.90;;;;;;;21.52;86.71;100676.06;7391997;19;20391;-78
2023/09/12 10:39:43;;;;;;;3.70;3.25;;;;;;;21.53;87.08;100676.91;7388111;19;20348;-78
2023/09/12 10:42:12;;;;;;;4.18;3.30;;;;;;;21.57;87.20;100672.63;7391769;19;20942;-78
2023/09/12 10:44:39;;;;;;;4.55;3.47;;;;;;;21.63;86.86;100674.31;7394017;19;20368;-79
2023/09/12 10:47:07;;;;;;;4.88;3.50;;;;;;;21.64;87.27;100672.44;7392632;19;21485;-78
2023/09/12 10:49:34;;;;;;;4.63;3.60;;;;;;;21.62;87.81;100658.38;7389353;19;20380;-79
2023/09/12 10:52:02;;;;;;;4.70;3.80;;;;;;;21.61;87.59;100662.94;7388312;19;20737;-79
2023/09/12 10:54:40;;;;;;;4.78;3.75;;;;;;;21.61;87.69;100662.94;7387383;19;21271;-79
2023/09/12 10:57:13;;;;;;;5.38;3.72;;;;;;;21.60;87.17;100661.31;7393216;19;20357;-79
2023/09/12 10:59:58;;;;;;;5.30;4.10;;;;;;;21.64;87.58;100654.38;7391611;19;20492;-79
2023/09/12 11:02:34;;;;;;;5.22;4.13;;;;;;;21.65;87.17;100674.06;7390363;19;20382;-79
2023/09/12 11:05:06;;;;;;;5.30;4.50;;;;;;;21.61;87.43;100689.13;7392928;19;20734;-79
2023/09/12 11:07:45;;;;;;;6.20;4.80;;;;;;;21.61;87.85;100679.13;7389755;19;20422;-79
2023/09/12 11:10:15;;;;;;;6.00;5.40;;;;;;;21.69;87.87;100680.59;7384410;19;20348;-79
2023/09/12 11:12:43;;;;;;;7.53;5.60;;;;;;;21.75;87.97;100680.44;7393595;19;20348;-79
2023/09/12 11:15:10;;;;;;;9.30;6.63;;;;;;;21.89;88.06;100674.66;7390213;19;20356;-79
2023/09/12 11:17:39;;;;;;;11.32;7.40;;;;;;;22.08;88.11;100672.44;7391591;19;20380;-79